createdAt,value
2018-12-23T00:00:29.093Z,5.93
2018-12-23T00:02:57.518Z,6.43
2018-12-23T00:05:26.284Z,6.33
2018-12-23T00:07:54.731Z,6.60
2018-12-23T00:10:23.159Z,6.30
2018-12-23T00:12:51.601Z,5.50
2018-12-23T00:15:20.032Z,7.20
2018-12-23T00:17:48.449Z,6.50
2018-12-23T00:20:16.893Z,7.97
2018-12-23T00:22:45.303Z,8.10
2018-12-23T00:25:13.887Z,8.87
2018-12-23T00:27:42.387Z,7.40
2018-12-23T00:30:10.932Z,6.80
2018-12-23T00:32:39.329Z,6.97
2018-12-23T00:35:07.913Z,8.67
2018-12-23T00:37:36.328Z,7.30
2018-12-23T00:40:05.644Z,7.37
2018-12-23T00:42:34.232Z,7.20
2018-12-23T00:45:02.653Z,7.70
2018-12-23T00:47:31.093Z,7.83
2018-12-23T00:49:59.521Z,7.70
2018-12-23T00:52:27.915Z,7.33
2018-12-23T00:54:56.352Z,9.93
2018-12-23T00:57:24.761Z,8.40
2018-12-23T00:59:53.191Z,8.50
2018-12-23T01:02:22.045Z,6.57
2018-12-23T01:04:50.469Z,7.83
2018-12-23T01:07:19.093Z,6.40
2018-12-23T01:09:47.470Z,7.83
2018-12-23T01:12:15.927Z,7.07
2018-12-23T01:14:44.394Z,7.47
2018-12-23T01:17:12.893Z,6.63
2018-12-23T01:19:41.308Z,7.80
2018-12-23T01:22:09.708Z,8.77
2018-12-23T01:24:38.148Z,8.37
2018-12-23T01:27:06.600Z,7.20
2018-12-23T01:29:35.003Z,9.07
2018-12-23T01:32:03.418Z,7.53
2018-12-23T01:34:37.067Z,8.00
2018-12-23T01:37:02.258Z,9.37
2018-12-23T01:39:31.071Z,8.53
2018-12-23T01:41:59.512Z,7.80
2018-12-23T01:44:27.971Z,9.07
2018-12-23T01:46:56.453Z,8.33
2018-12-23T01:49:24.914Z,9.30
2018-12-23T01:51:53.332Z,9.33
2018-12-23T01:54:21.770Z,7.63
2018-12-23T01:56:50.171Z,8.37
2018-12-23T01:59:18.670Z,8.40
2018-12-23T02:01:47.080Z,9.90
2018-12-23T02:04:15.556Z,10.50
2018-12-23T02:06:43.985Z,10.80
2018-12-23T02:09:12.383Z,9.10
2018-12-23T02:11:40.872Z,10.83
2018-12-23T02:14:09.295Z,11.50
2018-12-23T02:16:37.727Z,8.00
2018-12-23T02:19:06.136Z,9.47
2018-12-23T02:21:34.577Z,9.97
2018-12-23T02:24:03.380Z,8.80
2018-12-23T02:26:31.852Z,10.30
2018-12-23T02:29:00.380Z,10.80
2018-12-23T02:31:28.870Z,10.97
2018-12-23T02:33:57.321Z,10.70
2018-12-23T02:36:25.745Z,10.50
2018-12-23T02:38:54.183Z,9.97
2018-12-23T02:41:31.349Z,11.20
2018-12-23T02:43:53.240Z,9.20
2018-12-23T02:46:21.654Z,12.53
2018-12-23T02:48:50.067Z,10.07
2018-12-23T02:51:18.483Z,10.27
2018-12-23T02:53:46.885Z,12.50
2018-12-23T02:56:15.321Z,9.80
2018-12-23T02:58:44.365Z,10.10
2018-12-23T03:01:12.764Z,11.90
2018-12-23T03:03:41.160Z,9.80
2018-12-23T03:06:09.581Z,11.33
2018-12-23T03:08:37.979Z,10.90
2018-12-23T03:11:06.411Z,12.87
2018-12-23T03:13:35.074Z,10.37
2018-12-23T03:16:03.648Z,10.33
2018-12-23T03:18:32.076Z,10.60
2018-12-23T03:21:00.470Z,10.60
2018-12-23T03:23:29.007Z,11.40
2018-12-23T03:25:57.397Z,10.47
2018-12-23T03:28:25.810Z,10.30
2018-12-23T03:30:54.227Z,10.33
2018-12-23T03:33:22.638Z,10.43
2018-12-23T03:35:51.196Z,10.83
2018-12-23T03:38:19.601Z,9.70
2018-12-23T03:40:47.985Z,9.60
2018-12-23T03:43:16.403Z,11.47
2018-12-23T03:45:44.814Z,12.50
2018-12-23T03:48:13.237Z,10.33
2018-12-23T03:50:41.645Z,10.87
2018-12-23T03:53:10.086Z,12.00
2018-12-23T03:55:38.498Z,10.80
2018-12-23T03:58:06.931Z,11.97
2018-12-23T04:00:35.345Z,11.00
2018-12-23T04:03:03.761Z,11.93
2018-12-23T04:05:32.210Z,12.30
2018-12-23T04:08:00.605Z,13.20
2018-12-23T04:10:29.195Z,11.60
2018-12-23T04:12:57.630Z,11.43
2018-12-23T04:15:26.073Z,11.70
2018-12-23T04:17:54.484Z,13.10
2018-12-23T04:20:22.892Z,11.57
2018-12-23T04:22:51.331Z,11.17
2018-12-23T04:25:19.737Z,12.27
2018-12-23T04:27:48.163Z,10.93
2018-12-23T04:30:16.580Z,12.83
2018-12-23T04:32:44.994Z,12.10
2018-12-23T04:35:13.393Z,10.70
2018-12-23T04:37:41.828Z,11.10
2018-12-23T04:40:10.218Z,11.77
2018-12-23T04:42:38.611Z,11.93
2018-12-23T04:45:07.063Z,11.77
2018-12-23T04:47:35.447Z,11.80
2018-12-23T04:50:04.454Z,11.90
2018-12-23T04:52:32.980Z,10.13
2018-12-23T04:55:01.382Z,11.87
2018-12-23T04:57:29.801Z,12.27
2018-12-23T04:59:58.217Z,12.20
2018-12-23T05:02:26.634Z,13.13
2018-12-23T05:04:55.036Z,10.10
2018-12-23T05:07:23.462Z,11.97
2018-12-23T05:09:51.861Z,11.33
2018-12-23T05:12:20.264Z,9.83
2018-12-23T05:14:48.692Z,10.30
2018-12-23T05:17:17.240Z,9.23
2018-12-23T05:19:45.627Z,10.83
2018-12-23T05:22:14.022Z,9.67
2018-12-23T05:24:42.537Z,10.50
2018-12-23T05:27:11.022Z,11.10
2018-12-23T05:29:39.410Z,10.90
2018-12-23T05:32:07.831Z,11.07
2018-12-23T05:34:36.223Z,11.20
2018-12-23T05:37:04.619Z,10.83
2018-12-23T05:39:33.043Z,9.97
2018-12-23T05:42:01.473Z,11.00
2018-12-23T05:44:30.048Z,11.33
2018-12-23T05:46:58.479Z,10.63
2018-12-23T05:49:26.897Z,10.20
2018-12-23T05:51:55.323Z,10.10
2018-12-23T05:54:23.706Z,10.30
2018-12-23T05:56:52.227Z,9.80
2018-12-23T05:59:20.636Z,9.40
2018-12-23T06:01:49.043Z,8.57
2018-12-23T06:04:17.445Z,11.63
2018-12-23T06:06:45.886Z,9.30
2018-12-23T06:09:14.264Z,8.93
2018-12-23T06:11:42.674Z,9.90
2018-12-23T06:14:11.136Z,9.80
2018-12-23T06:16:39.536Z,8.57
2018-12-23T06:19:07.939Z,10.93
2018-12-23T06:21:36.344Z,7.97
2018-12-23T06:24:04.723Z,8.53
2018-12-23T06:26:33.203Z,9.33
2018-12-23T06:29:01.625Z,8.80
2018-12-23T06:31:30.122Z,8.30
2018-12-23T06:33:58.526Z,7.20
2018-12-23T06:36:26.936Z,8.60
2018-12-23T06:38:55.348Z,9.07
2018-12-23T06:41:24.016Z,9.13
2018-12-23T06:43:52.517Z,9.00
2018-12-23T06:46:20.903Z,8.47
2018-12-23T06:48:49.319Z,8.57
2018-12-23T06:51:17.794Z,8.53
2018-12-23T06:53:46.193Z,9.47
2018-12-23T06:56:14.600Z,8.13
2018-12-23T06:58:43.019Z,9.00
2018-12-23T07:01:11.457Z,8.87
2018-12-23T07:03:39.872Z,7.87
2018-12-23T07:06:08.292Z,7.30
2018-12-23T07:08:36.716Z,8.90
2018-12-23T07:11:05.137Z,8.87
2018-12-23T07:13:33.574Z,7.20
2018-12-23T07:16:01.994Z,7.10
2018-12-23T07:18:30.384Z,8.43
2018-12-23T07:20:58.819Z,7.60
2018-12-23T07:23:27.361Z,7.60
2018-12-23T07:25:55.775Z,7.33
2018-12-23T07:28:24.224Z,6.10
2018-12-23T07:30:52.659Z,7.40
2018-12-23T07:33:21.108Z,6.20
2018-12-23T07:35:49.630Z,7.77
2018-12-23T07:38:18.108Z,7.00
2018-12-23T07:40:46.541Z,5.30
2018-12-23T07:43:15.002Z,5.57
2018-12-23T07:45:43.435Z,5.20
2018-12-23T07:48:11.868Z,6.77
2018-12-23T07:50:40.285Z,5.57
2018-12-23T07:53:08.724Z,6.50
2018-12-23T07:55:37.147Z,6.07
2018-12-23T07:58:05.587Z,7.40
2018-12-23T08:00:33.982Z,6.30
2018-12-23T08:03:02.382Z,5.43
2018-12-23T08:05:30.814Z,4.90
2018-12-23T08:07:59.217Z,4.83
2018-12-23T08:10:27.649Z,4.67
2018-12-23T08:12:56.075Z,5.27
2018-12-23T08:15:24.467Z,5.13
2018-12-23T08:17:52.904Z,4.33
2018-12-23T08:20:21.305Z,5.47
2018-12-23T08:22:49.731Z,4.63
2018-12-23T08:25:18.139Z,7.77
2018-12-23T08:27:46.574Z,4.50
2018-12-23T08:30:15.095Z,5.93
2018-12-23T08:32:43.494Z,6.53
2018-12-23T08:35:11.922Z,5.83
2018-12-23T08:37:44.588Z,4.97
2018-12-23T08:40:10.781Z,5.80
2018-12-23T08:42:39.185Z,4.43
2018-12-23T08:45:07.605Z,3.73
2018-12-23T08:47:36.037Z,4.57
2018-12-23T08:50:04.744Z,3.93
2018-12-23T08:52:33.238Z,3.30
2018-12-23T08:55:01.663Z,4.87
2018-12-23T08:57:30.069Z,3.00
2018-12-23T08:59:58.469Z,4.40
2018-12-23T09:02:26.884Z,4.37
2018-12-23T09:04:55.290Z,4.43
2018-12-23T09:07:23.735Z,3.80
2018-12-23T09:09:52.128Z,4.60
2018-12-23T09:12:20.523Z,5.13
2018-12-23T09:14:49.016Z,3.60
2018-12-23T09:17:17.461Z,4.30
2018-12-23T09:19:45.851Z,4.70
2018-12-23T09:22:14.318Z,4.43
2018-12-23T09:24:42.734Z,4.00
2018-12-23T09:27:11.155Z,3.60
2018-12-23T09:29:39.596Z,5.27
2018-12-23T09:32:07.989Z,3.23
2018-12-23T09:34:36.449Z,4.17
2018-12-23T09:37:04.855Z,4.90
2018-12-23T09:39:33.291Z,5.13
2018-12-23T09:42:01.745Z,5.67
2018-12-23T09:44:30.207Z,5.77
2018-12-23T09:46:58.632Z,6.80
2018-12-23T09:49:27.033Z,5.40
2018-12-23T09:51:55.447Z,5.17
2018-12-23T09:54:23.954Z,6.10
2018-12-23T09:56:53.163Z,5.30
2018-12-23T09:59:21.870Z,6.27
2018-12-23T10:01:50.300Z,5.93
2018-12-23T10:04:18.687Z,6.30
2018-12-23T10:06:47.089Z,4.33
2018-12-23T10:09:15.519Z,4.63
2018-12-23T10:11:43.927Z,4.40
2018-12-23T10:14:12.438Z,4.60
2018-12-23T10:16:40.848Z,4.30
2018-12-23T10:19:09.290Z,4.40
2018-12-23T10:21:37.709Z,4.60
2018-12-23T10:24:06.112Z,4.50
2018-12-23T10:26:34.576Z,4.07
2018-12-23T10:29:03.019Z,4.57
2018-12-23T10:31:31.530Z,5.10
2018-12-23T10:33:59.962Z,5.87
2018-12-23T10:36:28.394Z,6.17
2018-12-23T10:38:56.844Z,6.70
2018-12-23T10:41:25.277Z,4.70
2018-12-23T10:43:53.705Z,4.93
2018-12-23T10:46:22.128Z,5.03
2018-12-23T10:48:50.553Z,4.33
2018-12-23T10:51:19.015Z,3.73
2018-12-23T10:53:47.451Z,4.27
2018-12-23T10:56:16.025Z,4.00
2018-12-23T10:58:44.428Z,4.10
2018-12-23T11:01:12.843Z,5.50
2018-12-23T11:03:41.248Z,4.93
2018-12-23T11:06:09.663Z,4.20
2018-12-23T11:08:38.043Z,4.43
2018-12-23T11:11:06.459Z,5.27
2018-12-23T11:13:34.873Z,6.23
2018-12-23T11:16:03.344Z,5.20
2018-12-23T11:18:31.879Z,4.10
2018-12-23T11:21:00.289Z,4.53
2018-12-23T11:23:29.198Z,3.90
2018-12-23T11:25:57.692Z,4.90
2018-12-23T11:28:26.091Z,4.20
2018-12-23T11:30:54.501Z,4.50
2018-12-23T11:33:22.921Z,4.97
2018-12-23T11:35:51.330Z,4.53
2018-12-23T11:38:19.728Z,5.67
2018-12-23T11:40:48.224Z,5.63
2018-12-23T11:43:16.594Z,6.30
2018-12-23T11:45:44.992Z,5.53
2018-12-23T11:48:13.403Z,7.00
2018-12-23T11:50:41.803Z,6.70
2018-12-23T11:53:10.219Z,6.20
2018-12-23T11:55:38.621Z,6.50
2018-12-23T11:58:07.049Z,6.13
2018-12-23T12:00:35.453Z,6.03
2018-12-23T12:03:10.356Z,6.80
2018-12-23T12:05:38.754Z,6.10
2018-12-23T12:08:07.160Z,4.37
2018-12-23T12:10:35.580Z,4.33
2018-12-23T12:13:03.997Z,4.53
2018-12-23T12:15:32.398Z,5.30
2018-12-23T12:18:00.845Z,3.83
2018-12-23T12:20:29.230Z,3.73
2018-12-23T12:22:57.624Z,2.80
2018-12-23T12:25:26.030Z,4.57
2018-12-23T12:27:54.429Z,3.60
2018-12-23T12:30:22.880Z,3.63
2018-12-23T12:32:51.332Z,3.40
2018-12-23T12:35:19.787Z,3.40
2018-12-23T12:37:48.207Z,3.90
2018-12-23T12:40:16.619Z,3.50
2018-12-23T12:42:45.025Z,4.10
2018-12-23T12:45:13.465Z,4.83
2018-12-23T12:47:41.874Z,4.73
2018-12-23T12:50:10.298Z,4.40
2018-12-23T12:52:38.708Z,4.67
2018-12-23T12:55:07.108Z,4.33
2018-12-23T12:57:35.547Z,5.97
2018-12-23T13:00:04.138Z,5.27
2018-12-23T13:02:32.574Z,4.53
2018-12-23T13:05:01.007Z,4.80
2018-12-23T13:07:29.395Z,4.83
2018-12-23T13:09:57.792Z,7.30
2018-12-23T13:12:26.212Z,6.10
2018-12-23T13:14:54.742Z,8.90
2018-12-23T13:17:23.201Z,8.53
2018-12-23T13:19:51.804Z,5.03
2018-12-23T13:22:20.243Z,6.73
2018-12-23T13:24:48.653Z,6.73
2018-12-23T13:27:17.051Z,6.63
2018-12-23T13:29:45.518Z,4.97
2018-12-23T13:32:13.919Z,5.63
2018-12-23T13:34:42.339Z,5.10
2018-12-23T13:37:10.775Z,5.90
2018-12-23T13:39:39.203Z,6.00
2018-12-23T13:42:22.404Z,5.60
2018-12-23T13:44:59.425Z,6.40
2018-12-23T13:47:39.779Z,7.20
2018-12-23T13:50:25.305Z,6.27
2018-12-23T13:53:36.652Z,7.23
2018-12-23T13:57:14.863Z,6.77
2018-12-23T14:00:03.380Z,7.93
2018-12-23T14:04:41.442Z,8.63
2018-12-23T14:08:24.640Z,10.20
2018-12-23T14:11:36.222Z,9.37
2018-12-23T14:14:04.639Z,6.83
2018-12-23T14:16:33.075Z,10.53
2018-12-23T14:19:01.480Z,10.77
2018-12-23T14:21:29.924Z,7.57
2018-12-23T14:23:58.342Z,7.10
2018-12-23T14:26:26.769Z,5.67
2018-12-23T14:28:55.201Z,6.17
2018-12-23T14:31:23.608Z,6.67
2018-12-23T14:33:52.023Z,7.67
2018-12-23T14:36:20.438Z,6.67
2018-12-23T14:38:48.846Z,7.17
2018-12-23T14:41:17.351Z,7.63
2018-12-23T14:43:45.752Z,7.77
2018-12-23T14:46:14.164Z,8.40
2018-12-23T14:48:42.585Z,9.10
2018-12-23T14:51:10.973Z,11.20
2018-12-23T14:53:39.400Z,11.40
2018-12-23T14:56:07.841Z,10.30
2018-12-23T14:58:37.895Z,9.30
2018-12-23T15:01:06.316Z,7.13
2018-12-23T15:03:34.720Z,7.17
2018-12-23T15:06:03.124Z,6.47
2018-12-23T15:08:31.557Z,7.30
2018-12-23T15:10:59.988Z,6.30
2018-12-23T15:13:28.383Z,7.90
2018-12-23T15:15:56.795Z,8.10
2018-12-23T15:18:25.560Z,7.33
2018-12-23T15:20:53.960Z,7.57
2018-12-23T15:23:22.432Z,7.70
2018-12-23T15:25:50.827Z,7.17
2018-12-23T15:28:19.235Z,8.37
2018-12-23T15:30:47.784Z,7.40
2018-12-23T15:33:16.262Z,8.53
2018-12-23T15:35:45.483Z,9.17
2018-12-23T15:38:13.872Z,9.60
2018-12-23T15:40:42.286Z,10.77
2018-12-23T15:43:10.699Z,9.70
2018-12-23T15:45:39.102Z,8.20
2018-12-23T15:48:07.603Z,8.50
2018-12-23T15:50:35.997Z,10.17
2018-12-23T15:53:04.410Z,7.77
2018-12-23T15:55:32.804Z,9.80
2018-12-23T15:58:01.217Z,9.67
2018-12-23T16:00:29.639Z,12.70
2018-12-23T16:02:58.040Z,10.57
2018-12-23T16:05:27.492Z,9.00
2018-12-23T16:07:55.901Z,9.07
2018-12-23T16:10:24.337Z,10.10
2018-12-23T16:12:52.740Z,9.90
2018-12-23T16:15:21.172Z,10.20
2018-12-23T16:17:49.605Z,9.70
2018-12-23T16:20:18.059Z,10.40
2018-12-23T16:22:46.487Z,8.20
2018-12-23T16:25:14.881Z,11.37
2018-12-23T16:27:43.310Z,9.60
2018-12-23T16:30:11.859Z,9.30
2018-12-23T16:32:40.293Z,10.03
2018-12-23T16:35:08.721Z,11.73
2018-12-23T16:37:37.151Z,10.20
2018-12-23T16:40:08.246Z,10.23
2018-12-23T16:42:36.643Z,11.17
2018-12-23T16:45:05.457Z,10.03
2018-12-23T16:47:33.871Z,11.03
2018-12-23T16:50:02.372Z,12.17
2018-12-23T16:52:30.784Z,11.87
2018-12-23T16:54:59.210Z,12.73
2018-12-23T16:57:27.606Z,14.57
2018-12-23T16:59:56.036Z,13.27
2018-12-23T17:02:24.500Z,11.97
2018-12-23T17:04:52.932Z,13.03
2018-12-23T17:07:21.350Z,14.10
2018-12-23T17:09:49.774Z,14.60
2018-12-23T17:12:45.944Z,14.47
2018-12-23T17:15:15.241Z,14.10
2018-12-23T17:17:44.528Z,15.20
2018-12-23T17:20:14.448Z,14.70
2018-12-23T17:22:43.784Z,16.90
2018-12-23T17:25:13.051Z,16.23
2018-12-23T17:27:42.345Z,15.40
2018-12-23T17:30:11.664Z,16.47
2018-12-23T17:32:40.985Z,17.27
2018-12-23T17:35:10.313Z,17.83
2018-12-23T17:37:39.608Z,20.17
2018-12-23T17:40:16.296Z,18.87
2018-12-23T17:42:39.933Z,16.87
2018-12-23T17:45:09.208Z,18.67
2018-12-23T17:47:38.517Z,17.77
2018-12-23T17:50:08.933Z,19.30
2018-12-23T17:52:38.202Z,19.83
2018-12-23T17:55:07.517Z,16.97
2018-12-23T17:57:36.867Z,18.30
2018-12-23T18:00:06.423Z,18.47
2018-12-23T18:02:35.706Z,18.40
2018-12-23T18:05:05.349Z,19.60
2018-12-23T18:07:34.613Z,20.57
2018-12-23T18:10:03.926Z,22.60
2018-12-23T18:12:33.272Z,22.03
2018-12-23T18:15:02.569Z,23.40
2018-12-23T18:17:31.953Z,21.40
2018-12-23T18:20:01.246Z,19.87
2018-12-23T18:22:30.555Z,20.73
2018-12-23T18:24:59.825Z,20.57
2018-12-23T18:27:29.105Z,20.40
2018-12-23T18:29:58.386Z,20.80
2018-12-23T18:32:27.726Z,20.60
2018-12-23T18:34:56.997Z,20.30
2018-12-23T18:37:26.296Z,18.67
2018-12-23T18:39:55.570Z,18.27
2018-12-23T18:42:24.818Z,19.23
2018-12-23T18:44:54.104Z,20.33
2018-12-23T18:47:23.381Z,20.70
2018-12-23T18:49:52.674Z,22.07
2018-12-23T18:52:21.957Z,22.57
2018-12-23T18:54:51.249Z,19.13
2018-12-23T18:57:21.865Z,19.60
2018-12-23T18:59:52.286Z,17.47
2018-12-23T19:02:30.328Z,19.40
2018-12-23T19:04:59.603Z,15.70
2018-12-23T19:07:28.874Z,16.23
2018-12-23T19:10:42.053Z,17.73
2018-12-23T19:13:46.025Z,16.53
2018-12-23T19:16:57.472Z,12.40
2018-12-23T19:19:48.003Z,17.70
2018-12-23T19:23:13.869Z,16.80
2018-12-23T19:26:37.029Z,18.83
2018-12-23T19:29:28.493Z,15.30
2018-12-23T19:32:41.653Z,17.13
2018-12-23T19:35:48.127Z,15.47
2018-12-23T19:39:01.440Z,13.03
2018-12-23T19:42:07.880Z,16.10
2018-12-23T19:45:18.320Z,16.10
2018-12-23T19:48:36.207Z,14.40
2018-12-23T19:51:41.488Z,15.03
2018-12-23T19:54:53.359Z,16.00
2018-12-23T19:57:56.989Z,12.63
2018-12-23T20:01:13.385Z,10.50
2018-12-23T20:04:22.973Z,11.50
2018-12-23T20:07:23.018Z,9.50
2018-12-23T20:10:59.105Z,10.50
2018-12-23T20:14:24.853Z,8.07
2018-12-23T20:17:17.316Z,7.83
2018-12-23T20:20:29.583Z,9.63
2018-12-23T20:23:37.049Z,8.17
2018-12-23T20:27:08.626Z,7.70
2018-12-23T20:30:04.400Z,7.67
2018-12-23T20:33:29.864Z,6.93
2018-12-23T20:36:35.003Z,7.93
2018-12-23T20:39:45.704Z,7.20
2018-12-23T20:42:38.209Z,6.93
2018-12-23T20:45:44.233Z,6.87
2018-12-23T20:48:57.661Z,5.57
2018-12-23T20:52:22.786Z,6.80
2018-12-23T20:55:38.019Z,7.07
2018-12-23T20:58:43.956Z,6.70
2018-12-23T21:01:38.548Z,7.20
2018-12-23T21:04:43.773Z,6.37
2018-12-23T21:08:03.755Z,7.17
2018-12-23T21:11:16.126Z,6.00
2018-12-23T21:14:05.271Z,2.90
2018-12-23T21:16:46.191Z,3.73
2018-12-23T21:19:56.938Z,3.93
2018-12-23T21:22:47.874Z,9.70
2018-12-23T21:26:03.250Z,7.80
2018-12-23T21:29:24.778Z,6.87
2018-12-23T21:32:56.306Z,6.40
2018-12-23T21:35:49.696Z,7.47
2018-12-23T21:38:43.008Z,7.73
2018-12-23T21:41:52.361Z,6.03
2018-12-23T21:44:49.761Z,7.30
2018-12-23T21:47:53.885Z,7.53
2018-12-23T21:50:46.589Z,8.40
2018-12-23T21:53:49.419Z,7.60
2018-12-23T21:57:03.083Z,8.77
2018-12-23T22:00:00.876Z,8.50
2018-12-23T22:03:02.762Z,6.80
2018-12-23T22:06:16.887Z,7.93
2018-12-23T22:09:29.007Z,7.63
2018-12-23T22:12:24.762Z,7.33
2018-12-23T22:14:54.029Z,6.77
2018-12-23T22:17:23.286Z,7.90
2018-12-23T22:19:52.574Z,6.50
2018-12-23T22:22:21.883Z,5.40
2018-12-23T22:24:51.169Z,4.53
2018-12-23T22:27:20.445Z,4.53
2018-12-23T22:29:49.764Z,3.83
2018-12-23T22:32:19.048Z,3.57
2018-12-23T22:34:48.372Z,3.93
2018-12-23T22:37:17.729Z,4.33
2018-12-23T22:39:46.991Z,4.90
2018-12-23T22:42:16.273Z,4.70
2018-12-23T22:44:45.602Z,4.23
2018-12-23T22:47:14.860Z,4.97
2018-12-23T22:49:44.156Z,3.97
2018-12-23T22:52:13.492Z,3.13
2018-12-23T22:54:42.772Z,4.03
2018-12-23T22:57:12.453Z,3.00
2018-12-23T22:59:41.758Z,3.40
2018-12-23T23:02:11.040Z,3.50
2018-12-23T23:04:40.350Z,3.20
2018-12-23T23:07:09.626Z,3.07
2018-12-23T23:09:38.986Z,3.13
2018-12-23T23:12:08.277Z,3.60
2018-12-23T23:14:37.559Z,2.60
2018-12-23T23:17:06.858Z,2.67
2018-12-23T23:19:36.341Z,3.67
2018-12-23T23:22:05.611Z,3.67
2018-12-23T23:24:34.896Z,4.87
2018-12-23T23:27:04.217Z,5.20
2018-12-23T23:29:33.484Z,4.90
2018-12-23T23:32:02.891Z,4.60
2018-12-23T23:34:32.233Z,6.20
2018-12-23T23:37:01.512Z,5.40
2018-12-23T23:39:30.793Z,7.00
2018-12-23T23:42:00.077Z,6.97
2018-12-23T23:44:30.430Z,7.40
2018-12-23T23:46:59.781Z,7.37
2018-12-23T23:49:29.069Z,7.73
2018-12-23T23:51:58.375Z,7.97
2018-12-23T23:54:27.628Z,8.10
2018-12-23T23:56:56.902Z,8.10
2018-12-23T23:59:26.185Z,8.30
